Time;durP1;ratioP1;P1;durP2;ratioP2;P2;SDS_P1;SDS_P2;PMS_P1;PMS_P2;Temp;Humidity;BMP_temperature;BMP_pressure;BME280_temperature;BME280_humidity;BME280_pressure;Samples;Min_cycle;Max_cycle;Signal;HPM_P1;HPM_P2
2022/02/05 00:01:49;;;;;;;7.32;4.20;;;10.20;57.60;;;;;;5095976;28;20491;-70
2022/02/05 00:04:16;;;;;;;9.85;4.80;;;10.20;57.60;;;;;;5095683;28;20028;-68
2022/02/05 00:06:45;;;;;;;6.88;4.55;;;10.20;57.60;;;;;;5088815;28;20115;-68
2022/02/05 00:09:29;;;;;;;6.30;4.03;;;10.20;57.50;;;;;;5075543;28;20052;-68
2022/02/05 00:12:13;;;;;;;5.55;3.95;;;10.20;57.40;;;;;;5075936;28;20017;-68
2022/02/05 00:39:26;;;;;;;;;;;10.20;57.60;;;;;;5075283;28;20048;-68
2022/02/05 00:42:05;;;;;;;7.55;3.45;;;10.20;57.60;;;;;;5074993;28;19904;-69
2022/02/05 00:44:31;;;;;;;5.15;3.60;;;10.20;57.50;;;;;;5056904;28;20384;-68
2022/02/05 00:46:57;;;;;;;4.78;3.28;;;10.20;57.60;;;;;;5075013;28;20031;-68
2022/02/05 00:49:22;;;;;;;3.97;3.13;;;10.20;57.60;;;;;;5056830;28;20460;-69
2022/02/05 00:52:06;;;;;;;6.72;4.80;;;10.20;57.70;;;;;;5056824;28;20449;-68
2022/02/05 00:54:32;;;;;;;7.72;4.90;;;10.20;57.70;;;;;;5074750;28;20032;-68
2022/02/05 00:59:29;;;;;;;11.77;8.23;;;10.20;57.70;;;;;;5074363;28;20024;-68
2022/02/05 01:01:56;;;;;;;18.90;11.88;;;10.20;57.70;;;;;;5074597;28;20100;-68
2022/02/05 01:04:22;;;;;;;13.27;8.93;;;10.20;57.70;;;;;;5074500;28;20032;-68
2022/02/05 01:06:47;;;;;;;10.02;6.05;;;10.20;57.70;;;;;;5074423;28;20021;-69
2022/02/05 01:09:23;;;;;;;8.35;4.85;;;10.20;57.70;;;;;;5089963;28;20028;-68
2022/02/05 01:11:50;;;;;;;12.90;6.93;;;10.20;57.80;;;;;;5073155;28;20024;-68
2022/02/05 01:14:17;;;;;;;10.07;6.30;;;10.20;57.70;;;;;;5073008;28;20024;-68
2022/02/05 01:16:55;;;;;;;5.88;4.28;;;10.20;57.80;;;;;;5089640;28;20029;-69
2022/02/05 01:19:49;;;;;;;7.80;4.40;;;10.20;57.90;;;;;;5074241;28;20027;-68
2022/02/05 01:22:12;;;;;;;9.50;4.43;;;10.20;57.90;;;;;;5073864;28;20055;-69
2022/02/05 01:24:39;;;;;;;7.63;4.53;;;10.20;58.00;;;;;;5089591;28;20127;-68
2022/02/05 01:27:51;;;;;;;7.28;4.40;;;10.20;58.00;;;;;;5072709;28;20029;-69
2022/02/05 01:32:42;;;;;;;5.95;4.30;;;10.20;58.00;;;;;;5074181;28;20040;-69
2022/02/05 01:35:16;;;;;;;7.68;4.93;;;10.20;58.00;;;;;;5073658;28;20064;-69
2022/02/05 01:49:12;;;;;;;6.15;4.15;;;10.20;58.20;;;;;;5073723;28;20499;-68
2022/02/05 01:56:55;;;;;;;6.50;3.72;;;10.30;58.30;;;;;;5073622;28;20032;-68
2022/02/05 01:59:41;;;;;;;5.25;3.60;;;10.30;58.40;;;;;;5072344;28;20475;-68
2022/02/05 02:04:58;;;;;;;5.32;2.55;;;10.30;58.40;;;;;;5088212;28;20502;-68
2022/02/05 02:15:39;;;;;;;3.58;2.42;;;10.40;58.30;;;;;;5093638;28;20082;-68
2022/02/05 02:21:59;;;;;;;2.97;2.05;;;10.40;58.20;;;;;;5093492;28;20063;-68
2022/02/05 02:24:09;;;;;;;3.40;2.05;;;10.50;58.30;;;;;;4991098;28;20549;-69
2022/02/05 02:29:28;;;;;;;3.25;2.28;;;10.60;58.20;;;;;;4991733;28;20081;-68
2022/02/05 02:31:56;;;;;;;4.13;2.22;;;10.70;58.20;;;;;;4991506;28;20420;-68
2022/02/05 02:34:27;;;;;;;2.85;1.90;;;10.80;58.20;;;;;;4991168;28;20078;-69
2022/02/05 02:36:58;;;;;;;2.30;1.58;;;10.90;58.00;;;;;;4991671;28;20030;-68
2022/02/05 02:39:30;;;;;;;3.95;2.13;;;11.00;58.10;;;;;;4991511;28;20045;-69
2022/02/05 02:42:02;;;;;;;2.45;1.75;;;11.00;57.60;;;;;;4991408;28;20026;-68
2022/02/05 02:44:27;;;;;;;1.80;1.20;;;11.10;57.60;;;;;;4991458;28;20114;-69
2022/02/05 02:46:53;;;;;;;1.48;1.27;;;11.20;57.70;;;;;;4991476;28;20482;-69
2022/02/05 02:49:36;;;;;;;1.65;1.08;;;11.20;57.40;;;;;;4975207;28;20042;-68
2022/02/05 02:57:32;;;;;;;0.52;0.52;;;11.20;55.90;;;;;;4991514;28;20072;-68
2022/02/05 03:00:05;;;;;;;0.73;0.63;;;11.20;56.10;;;;;;5077516;28;20032;-68
2022/02/05 03:02:31;;;;;;;0.77;0.50;;;11.20;55.60;;;;;;5075008;28;20443;-68
2022/02/05 03:04:57;;;;;;;0.88;0.60;;;11.20;55.00;;;;;;5074867;28;20085;-68
2022/02/05 03:07:26;;;;;;;1.10;0.50;;;11.20;54.50;;;;;;5093108;28;20433;-68
2022/02/05 03:09:55;;;;;;;0.50;0.40;;;11.10;54.20;;;;;;5093106;28;20024;-69
2022/02/05 03:12:21;;;;;;;1.50;0.43;;;11.10;54.00;;;;;;5074971;28;20115;-68
2022/02/05 03:14:47;;;;;;;0.75;0.60;;;11.10;53.80;;;;;;5092983;28;20525;-68
2022/02/05 03:17:18;;;;;;;2.03;0.57;;;11.20;54.00;;;;;;5092738;28;20020;-69
2022/02/05 03:19:46;;;;;;;1.10;0.40;;;11.10;53.00;;;;;;5093951;28;20470;-68
2022/02/05 03:22:16;;;;;;;0.55;0.45;;;11.10;52.90;;;;;;5078540;28;20051;-70
2022/02/05 03:24:42;;;;;;;0.75;0.45;;;11.10;53.00;;;;;;5096600;28;20107;-69
2022/02/05 03:27:10;;;;;;;0.30;0.30;;;11.10;52.90;;;;;;5096414;28;20031;-68
2022/02/05 03:29:36;;;;;;;0.50;0.40;;;11.00;52.60;;;;;;5096289;28;20492;-69
2022/02/05 03:32:02;;;;;;;0.63;0.40;;;11.00;52.60;;;;;;5096649;28;20024;-68
2022/02/05 03:34:28;;;;;;;0.47;0.30;;;11.00;52.50;;;;;;5077844;28;20544;-68
2022/02/05 03:36:55;;;;;;;0.20;0.20;;;11.00;52.80;;;;;;5096389;28;20024;-68
2022/02/05 03:39:20;;;;;;;0.55;0.45;;;10.90;52.80;;;;;;5077887;28;20020;-68
2022/02/05 03:41:46;;;;;;;1.17;0.30;;;10.90;52.80;;;;;;5096062;28;20035;-68
2022/02/05 03:44:12;;;;;;;1.63;0.40;;;10.90;52.50;;;;;;5078112;28;20028;-70
2022/02/05 03:46:38;;;;;;;0.45;0.40;;;10.80;52.20;;;;;;5077724;28;20020;-69
2022/02/05 03:49:03;;;;;;;0.75;0.40;;;10.80;51.90;;;;;;5096100;28;20028;-68
2022/02/05 03:51:29;;;;;;;1.13;0.30;;;10.80;51.70;;;;;;5077961;28;20024;-68
2022/02/05 03:53:55;;;;;;;0.32;0.30;;;10.70;51.00;;;;;;5096410;28;20024;-68
2022/02/05 03:56:21;;;;;;;0.50;0.20;;;10.60;51.00;;;;;;5077940;28;20443;-68
2022/02/05 03:58:47;;;;;;;1.95;0.40;;;10.60;51.40;;;;;;5095726;28;20024;-68
2022/02/05 04:01:13;;;;;;;0.98;0.40;;;10.60;51.50;;;;;;5095479;28;20028;-68
2022/02/05 04:03:39;;;;;;;0.40;0.30;;;10.50;51.10;;;;;;5077671;28;20032;-68
2022/02/05 04:06:05;;;;;;;0.52;0.40;;;10.30;51.30;;;;;;5095977;28;20024;-68
2022/02/05 04:08:32;;;;;;;1.27;0.30;;;10.20;51.60;;;;;;5077769;28;20032;-68
2022/02/05 04:11:15;;;;;;;0.80;0.40;;;10.20;51.90;;;;;;5095760;28;20081;-68
2022/02/05 04:16:25;;;;;;;0.55;0.40;;;10.10;52.40;;;;;;5095526;28;20031;-68
2022/02/05 04:18:56;;;;;;;0.32;0.30;;;10.10;52.60;;;;;;5095388;28;20463;-69
2022/02/05 04:21:23;;;;;;;0.35;0.35;;;10.10;52.70;;;;;;5095553;28;20023;-69
2022/02/05 04:23:51;;;;;;;0.40;0.40;;;10.00;52.80;;;;;;5095785;28;20074;-69
2022/02/05 04:26:18;;;;;;;0.98;0.35;;;10.00;53.00;;;;;;5095252;28;20035;-68
2022/02/05 04:28:44;;;;;;;0.68;0.50;;;10.00;53.20;;;;;;5077350;28;20063;-68
2022/02/05 04:31:10;;;;;;;2.60;0.90;;;9.90;53.30;;;;;;5094719;28;20434;-70
2022/02/05 04:33:37;;;;;;;0.70;0.45;;;9.90;53.40;;;;;;5094866;28;20048;-69
2022/02/05 04:36:04;;;;;;;1.25;0.63;;;9.90;53.40;;;;;;5095342;28;20052;-69
2022/02/05 04:38:31;;;;;;;0.93;0.77;;;9.90;53.50;;;;;;5095294;28;20310;-68
2022/02/05 04:46:16;;;;;;;1.17;0.70;;;9.60;53.70;;;;;;5095117;28;20044;-68
2022/02/05 05:02:10;;;;;;;1.17;0.98;;;9.40;54.70;;;;;;5094877;28;20028;-68
2022/02/05 05:04:43;;;;;;;0.85;0.82;;;9.40;54.80;;;;;;5094130;28;20040;-68
2022/02/05 05:20:29;;;;;;;1.50;1.05;;;9.50;54.60;;;;;;5094337;28;20261;-68
2022/02/05 05:22:55;;;;;;;3.42;1.30;;;9.50;54.50;;;;;;5094457;28;20470;-68
2022/02/05 05:25:21;;;;;;;3.50;1.20;;;9.50;54.00;;;;;;5094185;28;20120;-68
2022/02/05 05:27:47;;;;;;;2.05;1.17;;;9.50;53.40;;;;;;5094601;28;20455;-68
2022/02/05 05:30:13;;;;;;;1.98;1.70;;;9.50;53.40;;;;;;5094175;28;20028;-68
2022/02/05 05:32:39;;;;;;;1.70;1.52;;;9.50;53.40;;;;;;5075906;28;20035;-68
2022/02/05 05:35:06;;;;;;;1.67;1.33;;;9.50;53.10;;;;;;5094233;28;20052;-68
2022/02/05 05:37:31;;;;;;;1.70;1.30;;;9.40;53.00;;;;;;5075679;28;20030;-68
2022/02/05 05:39:57;;;;;;;1.50;1.40;;;9.40;53.10;;;;;;5094086;28;20024;-68
2022/02/05 05:42:27;;;;;;;1.33;1.20;;;9.40;52.90;;;;;;5075844;28;20097;-69
2022/02/05 05:45:12;;;;;;;1.45;1.20;;;9.40;52.90;;;;;;5075823;28;20491;-68
2022/02/05 05:47:53;;;;;;;4.60;1.50;;;9.40;52.80;;;;;;5093959;28;20020;-68
2022/02/05 05:53:05;;;;;;;1.58;1.45;;;9.40;52.70;;;;;;5093973;28;20089;-68
2022/02/05 05:55:33;;;;;;;2.00;1.60;;;9.40;52.80;;;;;;5075686;28;20054;-68
2022/02/05 05:57:59;;;;;;;12.02;2.15;;;9.40;52.70;;;;;;5093987;28;20023;-68
2022/02/05 06:00:24;;;;;;;2.30;1.70;;;9.30;52.60;;;;;;5093418;28;20024;-68
2022/02/05 06:02:50;;;;;;;3.17;2.30;;;9.30;52.70;;;;;;5093698;28;20448;-68
2022/02/05 06:05:16;;;;;;;2.22;1.80;;;9.20;52.70;;;;;;5075569;28;20471;-69
2022/02/05 06:07:42;;;;;;;4.25;2.38;;;9.20;53.00;;;;;;5093460;28;20084;-68
2022/02/05 06:10:08;;;;;;;2.70;2.10;;;9.20;53.00;;;;;;5075227;28;20493;-68
2022/02/05 06:12:34;;;;;;;4.85;2.30;;;9.20;53.10;;;;;;5075468;28;20028;-68
2022/02/05 06:15:03;;;;;;;2.42;2.22;;;9.20;53.20;;;;;;5075451;28;20162;-68
2022/02/05 06:17:29;;;;;;;2.78;2.22;;;9.10;53.00;;;;;;5075442;28;20024;-69
2022/02/05 06:19:55;;;;;;;2.15;1.77;;;9.10;52.90;;;;;;5075347;28;20035;-68
2022/02/05 06:22:21;;;;;;;10.38;2.53;;;9.20;52.90;;;;;;5093416;28;20028;-68
2022/02/05 06:24:47;;;;;;;1.35;1.23;;;9.20;52.90;;;;;;5093492;28;20028;-68
2022/02/05 06:27:13;;;;;;;4.70;1.52;;;9.20;52.70;;;;;;5075199;28;20032;-68
2022/02/05 06:29:39;;;;;;;4.35;1.25;;;9.20;52.70;;;;;;5075218;28;20034;-68
2022/02/05 06:32:05;;;;;;;3.72;1.80;;;9.20;52.60;;;;;;5075066;28;20024;-68
2022/02/05 06:34:31;;;;;;;2.17;1.60;;;9.20;52.50;;;;;;5092914;28;20434;-68
2022/02/05 06:36:57;;;;;;;1.55;0.90;;;9.10;51.90;;;;;;5093388;28;20100;-68
2022/02/05 06:39:23;;;;;;;1.98;1.15;;;9.10;51.70;;;;;;5092975;28;20024;-68
2022/02/05 06:41:49;;;;;;;4.35;1.52;;;9.10;51.30;;;;;;5093244;28;20505;-68
2022/02/05 06:44:15;;;;;;;7.13;1.58;;;9.00;51.00;;;;;;5092967;28;20520;-69
2022/02/05 06:46:42;;;;;;;1.83;0.90;;;9.00;50.80;;;;;;5075084;28;20399;-68
2022/02/05 06:49:08;;;;;;;1.20;0.77;;;9.00;50.60;;;;;;5075167;28;20495;-68
2022/02/05 06:51:34;;;;;;;1.35;1.08;;;8.90;50.30;;;;;;5075070;28;20459;-68
2022/02/05 06:54:00;;;;;;;2.08;1.30;;;8.90;50.40;;;;;;5092818;28;20032;-68
2022/02/05 06:56:26;;;;;;;3.72;1.48;;;8.80;50.20;;;;;;5096421;28;20505;-69
2022/02/05 06:58:52;;;;;;;1.70;1.25;;;8.90;50.80;;;;;;5078968;28;20031;-68
2022/02/05 07:01:18;;;;;;;2.40;1.50;;;8.90;50.80;;;;;;5096912;28;20395;-68
2022/02/05 07:03:44;;;;;;;2.95;1.30;;;8.90;50.50;;;;;;5078843;28;20145;-68
2022/02/05 07:06:10;;;;;;;3.60;1.20;;;8.90;50.60;;;;;;5097332;28;20425;-68
2022/02/05 07:08:36;;;;;;;3.70;1.30;;;8.90;50.70;;;;;;5097022;28;20024;-69
2022/02/05 07:11:01;;;;;;;2.13;1.30;;;9.00;50.70;;;;;;5096930;28;20028;-68
2022/02/05 07:13:27;;;;;;;2.95;1.50;;;9.00;50.90;;;;;;5096800;28;20024;-68
2022/02/05 07:16:19;;;;;;;6.53;1.30;;;9.00;51.00;;;;;;5096943;28;20067;-68
2022/02/05 07:21:22;;;;;;;5.55;1.95;;;9.00;50.60;;;;;;5096820;28;20081;-68
2022/02/05 07:29:16;;;;;;;8.32;2.10;;;9.00;50.70;;;;;;5096544;28;20455;-68
2022/02/05 07:31:54;;;;;;;7.00;2.30;;;9.00;50.80;;;;;;5096596;28;20732;-68
2022/02/05 07:34:25;;;;;;;6.32;2.15;;;9.00;50.50;;;;;;5096228;28;20139;-68
2022/02/05 07:36:53;;;;;;;4.75;2.15;;;9.10;50.60;;;;;;5096324;28;20489;-68
2022/02/05 07:39:19;;;;;;;4.55;1.55;;;9.10;50.70;;;;;;5096186;28;20020;-68
2022/02/05 07:41:45;;;;;;;4.93;1.63;;;9.10;50.60;;;;;;5095971;28;20428;-68
2022/02/05 07:44:14;;;;;;;13.48;3.10;;;9.10;50.40;;;;;;5096018;28;20032;-69
2022/02/05 07:46:46;;;;;;;5.35;1.83;;;9.20;50.50;;;;;;5096620;28;20421;-68
2022/02/05 07:49:13;;;;;;;4.28;1.60;;;9.20;50.10;;;;;;5078089;28;20114;-69
2022/02/05 07:51:39;;;;;;;5.47;1.75;;;9.20;49.90;;;;;;5077877;28;20028;-69
2022/02/05 07:54:10;;;;;;;1.90;1.17;;;9.20;50.00;;;;;;5096171;28;20031;-68
2022/02/05 07:56:47;;;;;;;5.43;1.73;;;9.30;50.10;;;;;;5096110;28;20027;-69
2022/02/05 07:59:14;;;;;;;4.40;1.65;;;9.20;49.70;;;;;;5096103;28;20073;-68
2022/02/05 08:01:40;;;;;;;2.22;1.38;;;9.20;49.50;;;;;;5077836;28;20028;-68
2022/02/05 08:04:06;;;;;;;4.45;1.85;;;9.20;49.50;;;;;;5077762;28;20089;-68
2022/02/05 08:06:34;;;;;;;9.40;1.92;;;9.20;49.50;;;;;;5076465;28;20024;-68
2022/02/05 08:09:04;;;;;;;4.00;1.70;;;9.20;49.40;;;;;;5077408;28;20020;-69
2022/02/05 08:11:43;;;;;;;4.47;1.65;;;9.10;49.50;;;;;;5096121;28;20157;-69
2022/02/05 08:14:10;;;;;;;10.73;1.80;;;9.00;49.50;;;;;;5095851;28;20031;-70
2022/02/05 08:16:51;;;;;;;6.45;1.63;;;9.00;49.70;;;;;;5095681;28;20350;-69
2022/02/05 08:19:17;;;;;;;4.80;1.38;;;8.90;49.70;;;;;;5095583;28;20028;-69
2022/02/05 08:21:43;;;;;;;6.10;1.50;;;8.90;49.80;;;;;;5095490;28;20020;-69
2022/02/05 08:24:09;;;;;;;2.67;1.35;;;8.90;50.00;;;;;;5095738;28;20036;-69
2022/02/05 08:26:38;;;;;;;8.85;1.33;;;8.80;49.90;;;;;;5077336;28;20093;-70
2022/02/05 08:29:05;;;;;;;7.03;1.50;;;8.80;49.70;;;;;;5077248;28;20024;-69
2022/02/05 08:31:31;;;;;;;3.13;1.45;;;8.80;49.70;;;;;;5077351;28;20060;-69
2022/02/05 08:33:57;;;;;;;2.10;1.10;;;8.80;49.70;;;;;;5095150;28;20105;-68
2022/02/05 08:36:25;;;;;;;5.20;1.60;;;8.70;49.60;;;;;;5077253;28;20477;-69
2022/02/05 08:38:53;;;;;;;3.97;1.33;;;8.70;49.80;;;;;;5095328;28;20383;-69
2022/02/05 08:41:19;;;;;;;9.68;1.45;;;8.70;49.80;;;;;;5077125;28;20481;-69
2022/02/05 08:43:48;;;;;;;4.82;1.30;;;8.60;49.70;;;;;;5077017;28;20063;-69
2022/02/05 08:46:14;;;;;;;4.43;1.40;;;8.60;49.90;;;;;;5095218;28;20089;-69
2022/02/05 08:48:39;;;;;;;5.55;1.15;;;8.60;49.80;;;;;;5094887;28;20028;-68
2022/02/05 08:51:06;;;;;;;7.53;1.55;;;8.60;49.80;;;;;;5094603;28;20099;-68
2022/02/05 08:53:32;;;;;;;5.07;1.38;;;8.60;50.00;;;;;;5076683;28;20027;-68
2022/02/05 08:55:58;;;;;;;2.65;1.40;;;8.70;50.30;;;;;;5094946;28;20051;-68
2022/02/05 08:58:25;;;;;;;8.10;1.48;;;8.70;50.30;;;;;;5076685;28;20056;-69
2022/02/05 09:01:06;;;;;;;4.72;1.40;;;8.80;49.80;;;;;;5076665;28;20020;-70
2022/02/05 09:03:39;;;;;;;2.88;1.10;;;8.90;50.00;;;;;;5095078;28;20020;-69
2022/02/05 09:06:06;;;;;;;3.47;1.37;;;9.00;50.00;;;;;;5076631;28;20034;-69
2022/02/05 09:08:37;;;;;;;4.45;1.10;;;9.10;49.90;;;;;;5094641;28;20307;-69
2022/02/05 09:11:15;;;;;;;6.35;1.48;;;9.20;49.80;;;;;;5094454;28;20027;-69
2022/02/05 09:16:13;;;;;;;4.28;1.42;;;9.50;49.20;;;;;;5094631;28;20034;-69
2022/02/05 09:18:41;;;;;;;4.18;1.80;;;9.60;48.70;;;;;;5076063;28;20052;-70
2022/02/05 09:21:08;;;;;;;5.10;1.45;;;9.70;48.60;;;;;;5094175;28;20024;-69
2022/02/05 09:23:39;;;;;;;3.38;1.67;;;9.80;48.30;;;;;;5075968;28;20118;-69
2022/02/05 09:26:06;;;;;;;5.05;1.90;;;9.90;48.00;;;;;;5094293;28;20024;-69
2022/02/05 09:28:34;;;;;;;3.80;1.65;;;10.00;47.70;;;;;;5076415;28;20145;-69
2022/02/05 09:33:36;;;;;;;7.40;1.95;;;10.10;47.60;;;;;;5093984;28;20433;-69
2022/02/05 09:36:02;;;;;;;5.10;2.35;;;10.10;47.90;;;;;;5076169;28;20085;-69
2022/02/05 09:38:28;;;;;;;4.80;1.40;;;10.20;47.50;;;;;;5076002;28;20055;-70
2022/02/05 09:40:53;;;;;;;2.92;1.50;;;10.30;47.10;;;;;;5094232;28;20058;-70
2022/02/05 09:43:26;;;;;;;5.00;1.70;;;10.40;47.40;;;;;;5093802;28;20077;-70
2022/02/05 09:45:52;;;;;;;5.90;1.45;;;10.40;46.90;;;;;;5075751;28;20054;-69
2022/02/05 09:48:19;;;;;;;3.17;1.23;;;10.50;46.50;;;;;;5075890;28;20074;-70
2022/02/05 09:50:47;;;;;;;7.68;1.88;;;10.50;46.40;;;;;;5075902;28;20028;-70
2022/02/05 09:53:14;;;;;;;4.53;1.20;;;10.50;46.20;;;;;;5075824;28;20375;-70
2022/02/05 09:55:42;;;;;;;3.83;1.65;;;10.40;46.00;;;;;;5093983;28;20031;-70
2022/02/05 09:58:08;;;;;;;4.28;1.30;;;10.50;46.40;;;;;;5075715;28;20024;-70
2022/02/05 10:00:35;;;;;;;5.15;1.60;;;10.50;46.50;;;;;;5075551;28;20027;-70
2022/02/05 10:03:02;;;;;;;4.53;1.75;;;10.60;46.90;;;;;;5093716;28;20068;-69
2022/02/05 10:05:33;;;;;;;3.55;1.50;;;10.70;46.80;;;;;;5075363;28;20055;-71
2022/02/05 10:08:08;;;;;;;3.03;1.30;;;10.70;46.30;;;;;;5093755;28;20016;-69
2022/02/05 10:10:52;;;;;;;10.73;1.90;;;10.80;46.60;;;;;;5093468;28;20523;-69
2022/02/05 10:13:19;;;;;;;13.43;1.88;;;10.80;46.10;;;;;;5094042;28;20024;-70
2022/02/05 10:15:52;;;;;;;5.90;1.40;;;10.80;45.70;;;;;;5075259;28;20540;-69
2022/02/05 10:18:30;;;;;;;3.55;1.15;;;10.80;45.10;;;;;;5075192;28;20035;-68
2022/02/05 10:21:01;;;;;;;3.95;1.40;;;10.80;45.40;;;;;;5075333;28;20031;-68
2022/02/05 10:23:29;;;;;;;3.42;0.90;;;10.90;45.30;;;;;;5075422;28;20028;-68
2022/02/05 10:25:56;;;;;;;6.45;1.25;;;10.90;45.20;;;;;;5093434;28;20032;-69
2022/02/05 10:28:23;;;;;;;4.32;1.10;;;11.00;45.20;;;;;;5093260;28;20141;-69
2022/02/05 10:30:53;;;;;;;4.10;1.30;;;11.00;44.80;;;;;;5074658;28;20038;-69
2022/02/05 10:33:31;;;;;;;2.63;1.33;;;11.00;44.80;;;;;;5075078;28;20062;-68
2022/02/05 10:36:04;;;;;;;3.92;1.15;;;11.00;44.80;;;;;;5093147;28;20033;-68
2022/02/05 10:44:11;;;;;;;6.10;1.50;;;11.00;44.50;;;;;;5093287;28;20476;-70
2022/02/05 10:46:42;;;;;;;4.82;1.35;;;11.00;44.20;;;;;;5093402;28;20028;-69
2022/02/05 10:49:12;;;;;;;6.18;1.55;;;11.10;44.60;;;;;;5093356;28;20352;-69
2022/02/05 10:51:45;;;;;;;5.25;1.50;;;11.30;44.70;;;;;;5074940;28;20077;-70
2022/02/05 10:54:28;;;;;;;4.00;1.40;;;11.40;44.40;;;;;;5074991;28;20028;-69
2022/02/05 10:57:52;;;;;;;3.15;1.42;;;11.50;44.40;;;;;;5093287;28;20047;-69
2022/02/05 11:05:12;;;;;;;3.05;0.98;;;11.70;44.00;;;;;;5089646;28;20299;-69
2022/02/05 11:07:58;;;;;;;3.08;1.20;;;11.80;42.80;;;;;;5092951;28;20115;-69
2022/02/05 11:21:04;;;;;;;6.78;2.08;;;12.00;42.70;;;;;;5092660;28;20027;-71
2022/02/05 11:23:33;;;;;;;4.03;1.60;;;12.00;42.20;;;;;;5074808;28;20024;-70
2022/02/05 11:26:00;;;;;;;8.63;1.52;;;12.00;41.90;;;;;;5074483;28;20040;-70
2022/02/05 11:28:44;;;;;;;5.72;1.88;;;12.00;41.90;;;;;;5092609;28;20455;-69
2022/02/05 11:31:42;;;;;;;5.70;1.55;;;12.00;42.00;;;;;;5093087;28;20032;-71
2022/02/05 11:34:22;;;;;;;3.33;1.38;;;12.10;42.60;;;;;;5092377;28;20056;-69
2022/02/05 11:37:04;;;;;;;5.38;1.70;;;12.20;42.00;;;;;;5092920;28;20032;-70
2022/02/05 11:39:43;;;;;;;3.42;1.20;;;12.20;41.90;;;;;;5074847;28;20146;-70
2022/02/05 11:42:25;;;;;;;3.20;1.98;;;12.30;42.20;;;;;;5095950;28;20024;-69
2022/02/05 11:44:51;;;;;;;3.63;1.40;;;12.50;42.30;;;;;;5077984;28;20464;-70
2022/02/05 11:47:20;;;;;;;2.90;1.35;;;12.60;42.10;;;;;;5096265;28;20024;-72
2022/02/05 11:49:52;;;;;;;5.63;1.65;;;12.60;41.30;;;;;;5077964;28;20031;-70
2022/02/05 11:52:36;;;;;;;4.43;1.67;;;12.70;40.70;;;;;;5096285;28;20490;-70
2022/02/05 11:55:33;;;;;;;3.67;1.65;;;12.70;40.50;;;;;;5078059;28;20028;-70
2022/02/05 11:58:04;;;;;;;5.80;1.60;;;12.70;40.90;;;;;;5070177;28;20492;-70
2022/02/05 12:00:43;;;;;;;5.80;1.52;;;12.70;40.10;;;;;;5095726;28;20437;-70
2022/02/05 12:03:28;;;;;;;10.18;2.13;;;12.70;40.30;;;;;;5077769;28;20114;-70
2022/02/05 12:06:00;;;;;;;5.93;1.40;;;12.70;40.20;;;;;;5077750;28;20039;-70
2022/02/05 12:08:32;;;;;;;4.50;1.50;;;12.70;40.20;;;;;;5077685;28;20119;-70
2022/02/05 12:10:58;;;;;;;6.38;1.58;;;12.60;40.20;;;;;;5077754;28;20028;-70
2022/02/05 12:13:35;;;;;;;4.75;1.20;;;12.50;40.30;;;;;;5095695;28;20070;-70
2022/02/05 12:16:06;;;;;;;4.35;1.30;;;12.40;40.10;;;;;;5095597;28;20024;-70
2022/02/05 12:19:12;;;;;;;6.10;1.50;;;12.30;39.80;;;;;;5095322;28;20020;-70
2022/02/05 12:21:53;;;;;;;6.20;1.73;;;12.10;39.80;;;;;;5077480;28;20024;-69
2022/02/05 12:24:35;;;;;;;4.95;1.40;;;11.90;39.90;;;;;;5077268;28;20028;-70
2022/02/05 12:27:22;;;;;;;2.10;1.13;;;11.80;39.80;;;;;;5077178;28;20429;-70
2022/02/05 12:29:48;;;;;;;6.22;1.60;;;11.60;40.10;;;;;;5094960;28;20360;-70
2022/02/05 12:32:14;;;;;;;4.88;1.48;;;11.50;40.50;;;;;;5077178;28;20032;-70
2022/02/05 12:34:40;;;;;;;4.63;1.45;;;11.40;40.70;;;;;;5094873;28;20052;-69
2022/02/05 12:37:06;;;;;;;4.38;1.30;;;11.30;41.00;;;;;;5077072;28;20459;-70
2022/02/05 12:39:34;;;;;;;2.63;1.10;;;11.30;41.10;;;;;;5095259;28;20051;-70
2022/02/05 12:42:02;;;;;;;3.70;1.45;;;11.40;41.30;;;;;;5095242;28;20027;-69
2022/02/05 12:44:30;;;;;;;5.30;1.40;;;11.40;41.10;;;;;;5095092;28;20051;-69
2022/02/05 12:47:01;;;;;;;2.83;1.02;;;11.40;41.20;;;;;;5077010;28;20024;-69
2022/02/05 12:52:00;;;;;;;6.57;1.58;;;11.50;41.20;;;;;;5094966;28;20032;-69
2022/02/05 12:54:28;;;;;;;3.67;0.95;;;11.50;41.20;;;;;;5094698;28;20119;-69
2022/02/05 12:56:56;;;;;;;6.55;1.48;;;11.50;41.10;;;;;;5094629;28;20490;-70
2022/02/05 12:59:30;;;;;;;10.10;1.75;;;11.40;40.90;;;;;;5076706;28;20348;-69
2022/02/05 13:02:15;;;;;;;5.00;1.30;;;11.40;40.90;;;;;;5094583;28;20031;-68
2022/02/05 13:04:45;;;;;;;3.55;1.42;;;11.50;41.10;;;;;;5076501;28;20036;-70
2022/02/05 13:07:18;;;;;;;4.15;1.27;;;11.50;41.20;;;;;;5094458;28;20028;-70
2022/02/05 13:10:06;;;;;;;4.85;1.45;;;11.50;41.30;;;;;;5094756;28;20099;-70
2022/02/05 13:12:41;;;;;;;4.30;1.33;;;11.60;41.30;;;;;;5094092;28;20102;-70
2022/02/05 13:15:26;;;;;;;3.38;1.05;;;11.60;40.80;;;;;;5094481;28;20067;-70
2022/02/05 13:34:02;;;;;;;;;;;11.60;40.70;;;;;;5094342;28;20059;-70
2022/02/05 13:36:50;;;;;;;5.13;1.45;;;11.70;41.30;;;;;;5094362;28;19998;-69
2022/02/05 13:42:12;;;;;;;3.97;1.00;;;11.80;39.50;;;;;;5094028;28;20124;-69
2022/02/05 13:44:52;;;;;;;7.93;1.30;;;11.90;38.90;;;;;;5075458;28;20032;-70
2022/02/05 13:47:18;;;;;;;5.80;1.20;;;11.90;38.20;;;;;;5093641;28;20024;-70
2022/02/05 13:50:04;;;;;;;4.60;0.80;;;11.90;37.90;;;;;;5094001;28;20027;-69
2022/02/05 13:52:38;;;;;;;3.30;0.88;;;11.80;37.70;;;;;;5075717;28;20386;-70
2022/02/05 13:55:10;;;;;;;2.83;0.80;;;11.80;38.20;;;;;;5075857;28;20036;-69
2022/02/05 13:57:35;;;;;;;4.15;1.00;;;11.80;38.30;;;;;;5093887;28;20023;-70
2022/02/05 14:00:02;;;;;;;2.75;0.93;;;11.80;38.10;;;;;;5094071;28;20050;-69
2022/02/05 14:02:36;;;;;;;3.25;1.05;;;11.80;38.20;;;;;;5093635;28;20151;-69
2022/02/05 14:05:11;;;;;;;2.13;0.90;;;11.80;37.80;;;;;;5092645;28;20024;-69
2022/02/05 14:07:47;;;;;;;1.85;0.70;;;11.80;37.90;;;;;;5093663;28;20487;-69
2022/02/05 14:10:18;;;;;;;2.90;0.82;;;11.80;38.20;;;;;;5075577;28;20028;-70
2022/02/05 14:12:56;;;;;;;4.57;1.00;;;11.80;37.80;;;;;;5075420;28;20024;-69
2022/02/05 14:15:25;;;;;;;2.75;0.95;;;11.70;37.80;;;;;;5075390;28;20111;-70
2022/02/05 14:18:11;;;;;;;3.60;1.40;;;11.70;38.10;;;;;;5093236;28;20468;-70
2022/02/05 14:20:51;;;;;;;5.53;1.10;;;11.80;37.70;;;;;;5093600;28;20020;-69
2022/02/05 14:23:18;;;;;;;5.50;1.33;;;11.70;38.00;;;;;;5075280;28;20078;-70
2022/02/05 14:28:33;;;;;;;7.30;1.13;;;11.90;37.90;;;;;;5093428;28;20032;-70
2022/02/05 14:31:05;;;;;;;2.08;1.02;;;11.90;38.10;;;;;;5075126;28;20056;-70
2022/02/05 14:33:44;;;;;;;2.53;1.15;;;11.90;37.60;;;;;;5075044;28;20060;-70
2022/02/05 14:41:22;;;;;;;2.83;1.23;;;11.90;37.80;;;;;;5093085;28;20041;-70
2022/02/05 14:43:48;;;;;;;7.15;1.08;;;11.90;38.00;;;;;;5093585;28;20032;-70
2022/02/05 14:46:14;;;;;;;3.20;0.77;;;11.80;38.20;;;;;;5093003;28;20081;-70
2022/02/05 14:48:40;;;;;;;5.70;1.63;;;11.90;38.20;;;;;;5075131;28;20483;-69
2022/02/05 14:51:07;;;;;;;2.15;1.00;;;11.80;38.10;;;;;;5093204;28;20448;-70
2022/02/05 14:53:33;;;;;;;4.90;1.10;;;11.70;38.30;;;;;;5093126;28;20024;-70
2022/02/05 14:55:59;;;;;;;2.72;1.10;;;11.70;38.40;;;;;;5093289;28;20470;-69
2022/02/05 14:58:25;;;;;;;3.08;1.30;;;11.50;38.50;;;;;;5093297;28;20477;-69
2022/02/05 15:00:50;;;;;;;3.90;1.02;;;11.50;38.80;;;;;;5075108;28;20491;-69
2022/02/05 15:03:19;;;;;;;1.83;1.00;;;11.40;38.90;;;;;;5075068;28;20031;-69
2022/02/05 15:05:47;;;;;;;15.43;1.30;;;11.30;39.10;;;;;;5092711;28;20154;-70
2022/02/05 15:08:13;;;;;;;3.70;1.23;;;11.30;39.40;;;;;;5093100;28;20031;-69
2022/02/05 15:10:39;;;;;;;2.60;1.00;;;11.30;39.60;;;;;;5092783;28;20103;-69
2022/02/05 15:13:05;;;;;;;2.65;1.25;;;11.10;39.60;;;;;;5092754;28;20105;-69
2022/02/05 15:15:32;;;;;;;3.75;1.25;;;11.10;39.90;;;;;;5093406;28;20024;-70
2022/02/05 15:17:59;;;;;;;2.08;1.10;;;11.10;39.80;;;;;;5096568;28;20020;-69
2022/02/05 15:20:25;;;;;;;4.55;0.95;;;11.00;40.00;;;;;;5078421;28;20024;-69
2022/02/05 15:22:52;;;;;;;2.88;0.98;;;10.90;40.40;;;;;;5096736;28;20521;-69
2022/02/05 15:25:18;;;;;;;5.95;0.93;;;10.80;40.50;;;;;;5096492;28;20050;-71
2022/02/05 15:27:45;;;;;;;9.57;1.20;;;10.70;40.80;;;;;;5078632;28;20039;-70
2022/02/05 15:30:12;;;;;;;2.05;1.00;;;10.70;40.80;;;;;;5078363;28;20054;-69
2022/02/05 15:32:38;;;;;;;4.47;2.15;;;10.60;40.70;;;;;;5077811;28;20533;-69
2022/02/05 15:35:05;;;;;;;5.07;1.73;;;10.50;41.30;;;;;;5078163;28;20503;-69
2022/02/05 15:37:31;;;;;;;7.80;1.30;;;10.40;40.90;;;;;;5078475;28;20052;-70
2022/02/05 15:45:10;;;;;;;3.63;1.17;;;10.30;41.30;;;;;;5096278;28;20089;-69
2022/02/05 15:47:36;;;;;;;3.42;1.10;;;10.20;41.40;;;;;;5096471;28;20028;-69
2022/02/05 15:50:03;;;;;;;5.07;1.65;;;10.20;41.40;;;;;;5096042;28;20020;-69
2022/02/05 15:52:28;;;;;;;3.70;1.45;;;10.20;41.40;;;;;;5096293;28;20023;-69
2022/02/05 15:54:56;;;;;;;6.78;1.70;;;10.20;41.40;;;;;;5096192;28;20103;-71
2022/02/05 15:57:36;;;;;;;4.00;1.20;;;10.10;41.60;;;;;;5096232;28;20034;-69
2022/02/05 16:02:30;;;;;;;3.33;1.30;;;10.10;41.60;;;;;;5096064;28;20118;-70
2022/02/05 16:04:56;;;;;;;7.47;2.00;;;10.10;41.60;;;;;;5077852;28;20462;-69